Aeroporto :
LOGIN :

Iscrizione | Disclaimer

   EN    FR    IT 

 










Sommario :    VFR   VFR Marginale   IFR   IFR Intensivo   IFR Molto Intensivo
Visibilità : 
Base nubi : 
>= 8 km
>= 3000ft
5 / 8 km
1000 / 3000 ft
1500m / 5 km
500 / 1000 ft
800 / 1500m
200 / 500 ft
< 800m
< 200 ft
Simboli :   Temporali  Nebbia  Neve Forte  Precipitazioni Forti  Vento > 20 kt
SIGMETs :   Varie  Temporali  Ghiacco  Turbolenza  Onda orograficha  Ceneri Vulcaniche






- Altitudine del aeroporto : 21 ft
- Codice IATA : VST


ESOW - Stockholm Västerås

ULTIMO METAR :
  • 020520Z AUTO 12006KT 9999 NCD 17/10 Q1019

METARs OBSOLETI :
  • 020450Z AUTO 12006KT 9999 NCD 17/10 Q1019
  • 020420Z AUTO 11003KT 060V150 9999 NCD 16/10 Q1019
  • 020350Z AUTO VRB02KT 9999 NCD 13/10 Q1020
  • 020320Z AUTO 36003KT 9999 NCD 12/08 Q1020
  • 020250Z AUTO 36004KT 9999 NCD 10/07 Q1020

TAF TAF ESOW
Valido dal 02 a 06 ore il 02 a 15 ore UTC


020530Z 0206/0215 14008KT CAVOK



MetMap, La meteo Aeronautica in un colpo d'occhio ! - Copyright ORBIFLY Dicembre 2007 - Disclaimer

ORBIFLY MET'MAP TEAM :

Programmazione e sviluppo : Alexandra Zaïnal
Concezione : Baudouin d'Aumeries
Aiuto per la programmazione : Marc-Olivier Méhu
Supporto tecnico e logistico : Manuel Goepfert
Aiuto per la traduzione : Arnaldo La Scala

Contatto : metmap@orbifly.com




FONTI E CREDITI :

   NOAA